createdAt,value
2022-10-11T00:01:06.006Z,43.31
2022-10-11T00:03:34.480Z,43.42
2022-10-11T00:06:05.869Z,43.46
2022-10-11T00:08:35.058Z,43.48
2022-10-11T00:11:08.656Z,43.45
2022-10-11T00:13:37.454Z,43.22
2022-10-11T00:16:10.561Z,43.52
2022-10-11T00:18:39.742Z,43.42
2022-10-11T00:21:12.031Z,43.27
2022-10-11T00:23:40.684Z,43.31
2022-10-11T00:26:12.290Z,43.57
2022-10-11T00:28:41.687Z,43.46
2022-10-11T00:31:11.695Z,43.51
2022-10-11T00:33:40.434Z,43.48
2022-10-11T00:36:10.543Z,43.60
2022-10-11T00:38:38.957Z,43.73
2022-10-11T00:41:09.161Z,43.58
2022-10-11T00:43:37.836Z,43.55
2022-10-11T00:46:30.262Z,43.78
2022-10-11T00:49:05.894Z,43.63
2022-10-11T00:51:50.859Z,43.50
2022-10-11T00:54:25.326Z,43.60
2022-10-11T00:57:02.642Z,43.65
2022-10-11T00:59:40.759Z,43.73
2022-10-11T01:02:10.495Z,43.81
2022-10-11T01:04:40.509Z,43.81
2022-10-11T01:07:10.041Z,43.58
2022-10-11T01:09:38.479Z,43.61
2022-10-11T01:12:19.864Z,43.81
2022-10-11T01:15:13.597Z,43.71
2022-10-11T01:17:50.878Z,43.57
2022-10-11T01:20:52.509Z,43.63
2022-10-11T01:24:10.589Z,43.71
2022-10-11T01:27:29.722Z,43.86
2022-10-11T01:30:19.420Z,43.61
2022-10-11T01:32:59.148Z,43.65
2022-10-11T01:35:34.758Z,43.64
2022-10-11T01:38:10.241Z,43.75
2022-10-11T01:40:45.452Z,43.74
2022-10-11T01:43:16.315Z,43.81
2022-10-11T01:45:49.117Z,43.51
2022-10-11T01:48:17.492Z,43.55
2022-10-11T01:50:48.476Z,43.70
2022-10-11T01:53:43.863Z,43.60
2022-10-11T01:56:32.055Z,43.79
2022-10-11T01:59:21.170Z,43.77
2022-10-11T02:01:59.164Z,43.84
2022-10-11T02:04:33.412Z,43.96
2022-10-11T02:07:09.078Z,43.84
2022-10-11T02:09:46.855Z,44.03
2022-10-11T02:12:24.660Z,43.99
2022-10-11T02:14:57.891Z,44.00
2022-10-11T02:17:35.627Z,44.04
2022-10-11T02:20:13.114Z,44.02
2022-10-11T02:22:46.709Z,44.10
2022-10-11T02:25:22.510Z,44.03
2022-10-11T02:27:53.181Z,44.00
2022-10-11T02:30:21.727Z,44.08
2022-10-11T02:32:53.022Z,44.23
2022-10-11T02:35:25.592Z,44.21
2022-10-11T02:38:00.605Z,44.27
2022-10-11T02:40:33.425Z,44.27
2022-10-11T02:43:06.582Z,44.33
2022-10-11T02:45:40.214Z,44.29
2022-10-11T02:48:13.017Z,44.32
2022-10-11T02:50:42.752Z,44.28
2022-10-11T02:53:11.557Z,44.45
2022-10-11T02:55:40.153Z,44.38
2022-10-11T02:58:08.484Z,44.45
2022-10-11T03:00:36.875Z,44.40
2022-10-11T03:03:05.353Z,44.31
2022-10-11T03:05:40.571Z,44.40
2022-10-11T03:08:10.035Z,44.39
2022-10-11T03:10:38.722Z,44.35
2022-10-11T03:13:07.271Z,44.33
2022-10-11T03:15:35.740Z,44.37
2022-10-11T03:18:04.138Z,44.27
2022-10-11T03:20:33.877Z,44.21
2022-10-11T03:23:02.260Z,44.27
2022-10-11T03:25:30.774Z,44.37
2022-10-11T03:27:59.114Z,44.32
2022-10-11T03:30:27.596Z,44.52
2022-10-11T03:32:55.964Z,44.46
2022-10-11T03:35:24.390Z,44.62
2022-10-11T03:37:54.106Z,45.38
2022-10-11T03:40:22.705Z,45.51
2022-10-11T03:42:51.042Z,45.86
2022-10-11T03:45:19.579Z,46.06
2022-10-11T03:47:47.921Z,46.43
2022-10-11T03:50:16.355Z,46.57
2022-10-11T03:52:44.733Z,47.04
2022-10-11T03:55:14.474Z,47.39
2022-10-11T03:57:42.829Z,47.55
2022-10-11T04:00:12.343Z,47.89
2022-10-11T04:02:40.758Z,48.03
2022-10-11T04:05:11.205Z,47.82
2022-10-11T04:07:39.655Z,47.75
2022-10-11T04:10:09.311Z,47.85
2022-10-11T04:12:40.034Z,48.01
2022-10-11T04:15:09.576Z,48.13
2022-10-11T04:17:37.891Z,48.28
2022-10-11T04:20:08.335Z,48.41
2022-10-11T04:22:36.737Z,48.32
2022-10-11T04:25:05.767Z,48.50
2022-10-11T04:27:34.153Z,48.57
2022-10-11T04:30:04.170Z,48.60
2022-10-11T04:32:32.599Z,48.78
2022-10-11T04:35:00.985Z,48.82
2022-10-11T04:37:29.348Z,48.98
2022-10-11T04:39:57.715Z,49.09
2022-10-11T04:42:26.064Z,49.28
2022-10-11T04:44:54.414Z,49.13
2022-10-11T04:47:24.245Z,49.39
2022-10-11T04:49:52.665Z,49.40
2022-10-11T04:52:25.390Z,49.38
2022-10-11T04:54:54.362Z,49.52
2022-10-11T04:57:22.730Z,49.50
2022-10-11T04:59:51.093Z,49.66
2022-10-11T05:02:19.790Z,49.67
2022-10-11T05:04:49.603Z,49.98
2022-10-11T05:07:18.271Z,50.09
2022-10-11T05:09:46.645Z,50.24
2022-10-11T05:12:15.024Z,50.37
2022-10-11T05:14:43.360Z,50.29
2022-10-11T05:17:11.727Z,50.45
2022-10-11T05:19:40.059Z,50.38
2022-10-11T05:22:10.321Z,50.46
2022-10-11T05:24:39.251Z,50.71
2022-10-11T05:27:07.792Z,50.51
2022-10-11T05:29:36.212Z,50.65
2022-10-11T05:32:04.714Z,50.74
2022-10-11T05:34:33.114Z,50.87
2022-10-11T05:37:01.495Z,51.09
2022-10-11T05:39:31.521Z,51.02
2022-10-11T05:41:59.882Z,51.05
2022-10-11T05:44:28.464Z,51.16
2022-10-11T05:46:56.854Z,51.08
2022-10-11T05:49:25.253Z,50.96
2022-10-11T05:51:53.612Z,51.18
2022-10-11T05:54:22.006Z,51.47
2022-10-11T05:56:51.748Z,51.66
2022-10-11T05:59:20.079Z,51.64
2022-10-11T06:01:48.503Z,51.60
2022-10-11T06:04:19.033Z,51.40
2022-10-11T06:06:47.420Z,51.50
2022-10-11T06:09:15.784Z,51.44
2022-10-11T06:11:45.509Z,51.36
2022-10-11T06:14:15.264Z,51.40
2022-10-11T06:16:43.671Z,51.44
2022-10-11T06:19:12.020Z,51.29
2022-10-11T06:21:40.529Z,51.22
2022-10-11T06:24:09.454Z,51.09
2022-10-11T06:26:37.851Z,51.01
2022-10-11T06:29:06.924Z,50.93
2022-10-11T06:31:36.714Z,51.03
2022-10-11T06:34:05.086Z,50.71
2022-10-11T06:36:33.487Z,50.83
2022-10-11T06:39:02.062Z,50.68
2022-10-11T06:41:32.045Z,50.59
2022-10-11T06:44:00.721Z,50.49
2022-10-11T06:46:29.893Z,50.49
2022-10-11T06:48:59.911Z,50.46
2022-10-11T06:51:30.143Z,50.44
2022-10-11T06:54:02.035Z,50.59
2022-10-11T06:56:31.563Z,50.47
2022-10-11T06:59:01.039Z,50.30
2022-10-11T07:01:29.439Z,50.27
2022-10-11T07:04:01.428Z,50.00
2022-10-11T07:06:32.648Z,50.00
2022-10-11T07:09:02.149Z,49.49
2022-10-11T07:11:30.989Z,49.59
2022-10-11T07:14:02.113Z,49.66
2022-10-11T07:16:31.131Z,49.29
2022-10-11T07:19:03.079Z,49.57
2022-10-11T07:21:33.288Z,49.68
2022-10-11T07:24:03.036Z,49.34
2022-10-11T07:26:38.314Z,49.24
2022-10-11T07:29:07.896Z,49.17
2022-10-11T07:31:38.756Z,49.33
2022-10-11T07:34:08.993Z,49.35
2022-10-11T07:36:37.930Z,48.84
2022-10-11T07:39:08.366Z,48.97
2022-10-11T07:41:43.081Z,48.69
2022-10-11T07:44:14.178Z,48.44
2022-10-11T07:46:42.540Z,48.45
2022-10-11T07:49:12.369Z,48.43
2022-10-11T07:51:41.059Z,47.97
2022-10-11T07:54:09.456Z,47.75
2022-10-11T07:56:39.997Z,47.56
2022-10-11T07:59:08.478Z,47.67
2022-10-11T08:01:37.039Z,47.20
2022-10-11T08:04:06.061Z,47.14
2022-10-11T08:06:36.771Z,46.89
2022-10-11T08:09:05.711Z,47.11
2022-10-11T08:11:37.230Z,46.97
2022-10-11T08:14:09.082Z,46.88
2022-10-11T08:16:38.265Z,46.66
2022-10-11T08:19:07.532Z,46.53
2022-10-11T08:21:37.554Z,46.15
2022-10-11T08:24:07.805Z,46.12
2022-10-11T08:26:36.917Z,45.81
2022-10-11T08:29:05.453Z,45.74
2022-10-11T08:31:35.743Z,45.32
2022-10-11T08:34:04.410Z,45.45
2022-10-11T08:36:33.369Z,45.26
2022-10-11T08:39:03.141Z,44.82
2022-10-11T08:41:40.434Z,44.83
2022-10-11T08:44:46.400Z,44.42
2022-10-11T08:47:29.040Z,43.64
2022-10-11T08:49:59.324Z,43.48
2022-10-11T08:52:34.912Z,43.23
2022-10-11T08:55:09.078Z,43.29
2022-10-11T08:57:40.709Z,43.44
2022-10-11T09:00:15.854Z,43.47
2022-10-11T09:03:07.408Z,43.46
2022-10-11T09:05:55.693Z,42.88
2022-10-11T09:08:34.648Z,43.09
2022-10-11T09:11:13.748Z,43.29
2022-10-11T09:14:15.346Z,43.33
2022-10-11T09:17:01.615Z,42.97
2022-10-11T09:19:52.407Z,42.98
2022-10-11T09:22:32.461Z,42.58
2022-10-11T09:25:20.170Z,42.58
2022-10-11T09:28:06.312Z,42.47
2022-10-11T09:30:35.163Z,42.01
2022-10-11T09:33:14.619Z,42.28
2022-10-11T09:35:47.456Z,42.20
2022-10-11T09:38:36.904Z,42.27
2022-10-11T09:41:16.515Z,41.98
2022-10-11T09:43:50.866Z,41.77
2022-10-11T09:46:30.925Z,41.67
2022-10-11T09:49:00.178Z,41.56
2022-10-11T09:51:29.932Z,41.33
2022-10-11T09:54:01.575Z,41.15
2022-10-11T09:56:32.984Z,41.01
2022-10-11T09:59:28.032Z,41.15
2022-10-11T10:02:23.878Z,41.07
2022-10-11T10:05:14.842Z,41.01
2022-10-11T10:08:07.160Z,40.90
2022-10-11T10:10:40.320Z,40.78
2022-10-11T10:13:22.926Z,40.74
2022-10-11T10:15:56.668Z,40.73
2022-10-11T10:18:34.870Z,40.57
2022-10-11T10:21:04.752Z,40.04
2022-10-11T10:23:36.477Z,39.92
2022-10-11T10:26:18.152Z,40.06
2022-10-11T10:29:18.651Z,39.69
2022-10-11T10:34:59.442Z,38.85
2022-10-11T10:37:36.022Z,38.56
2022-10-11T10:40:09.595Z,37.99
2022-10-11T10:42:38.776Z,36.92
2022-10-11T10:45:21.149Z,36.88
2022-10-11T10:48:17.646Z,36.89
2022-10-11T10:50:55.775Z,36.65
2022-10-11T10:53:33.636Z,36.36
2022-10-11T10:56:10.960Z,34.66
2022-10-11T10:59:19.717Z,34.80
2022-10-11T11:01:57.138Z,34.10
2022-10-11T11:04:34.294Z,32.66
2022-10-11T11:07:15.236Z,31.62
2022-10-11T11:09:55.425Z,31.32
2022-10-11T11:12:41.022Z,30.11
2022-10-11T11:15:19.745Z,28.49
2022-10-11T11:18:06.065Z,29.27
2022-10-11T11:20:56.172Z,29.53
2022-10-11T11:23:34.514Z,29.31
2022-10-11T11:26:12.102Z,28.76
2022-10-11T11:28:56.972Z,28.85
2022-10-11T11:31:46.139Z,28.55
2022-10-11T11:34:23.142Z,27.55
2022-10-11T11:36:59.070Z,26.94
2022-10-11T11:39:33.553Z,26.45
2022-10-11T11:42:08.930Z,26.70
2022-10-11T11:44:43.724Z,26.70
2022-10-11T11:47:20.738Z,26.41
2022-10-11T11:49:56.463Z,26.16
2022-10-11T11:52:33.028Z,25.13
2022-10-11T11:55:12.237Z,25.34
2022-10-11T11:58:02.082Z,24.94
2022-10-11T12:00:54.351Z,24.55
2022-10-11T12:03:28.917Z,24.02
2022-10-11T12:06:35.947Z,24.29
2022-10-11T12:09:21.656Z,23.50
2022-10-11T12:11:56.379Z,23.16
2022-10-11T12:14:38.736Z,22.76
2022-10-11T12:17:18.366Z,21.78
2022-10-11T12:20:14.546Z,21.89
2022-10-11T12:22:58.272Z,22.17
2022-10-11T12:25:43.244Z,21.63
2022-10-11T12:29:00.721Z,20.36
2022-10-11T12:31:33.749Z,20.03
2022-10-11T12:34:38.573Z,20.29
2022-10-11T12:37:51.653Z,20.10
2022-10-11T12:40:41.920Z,19.73
2022-10-11T12:43:34.052Z,20.36
2022-10-11T12:46:41.402Z,20.40
2022-10-11T12:49:47.971Z,20.21
2022-10-11T12:52:34.662Z,20.09
2022-10-11T12:55:31.131Z,19.91
2022-10-11T12:58:28.790Z,19.63
2022-10-11T13:01:23.148Z,19.35
2022-10-11T13:04:06.467Z,18.29
2022-10-11T13:06:44.868Z,17.35
2022-10-11T13:09:22.011Z,17.18
2022-10-11T13:11:55.316Z,17.94
2022-10-11T13:14:28.617Z,17.03
2022-10-11T13:17:09.660Z,16.89
2022-10-11T13:22:22.085Z,18.16
2022-10-11T13:24:51.310Z,19.06
2022-10-11T13:27:23.041Z,19.16
2022-10-11T13:29:55.816Z,19.85
2022-10-11T13:32:28.265Z,20.69
2022-10-11T13:34:59.676Z,20.70
2022-10-11T13:37:30.895Z,21.50
2022-10-11T13:39:59.653Z,21.73
2022-10-11T13:42:32.109Z,22.03
2022-10-11T13:45:02.302Z,22.34
2022-10-11T13:47:32.980Z,22.73
2022-10-11T13:50:19.682Z,22.88
2022-10-11T13:52:58.043Z,22.81
2022-10-11T13:55:33.636Z,23.06
2022-10-11T13:58:04.473Z,23.16
2022-10-11T14:00:40.524Z,23.40
2022-10-11T14:03:21.322Z,23.35
2022-10-11T14:05:56.932Z,23.86
2022-10-11T14:08:32.676Z,24.03
2022-10-11T14:11:06.038Z,24.23
2022-10-11T14:13:38.742Z,24.37
2022-10-11T14:16:11.333Z,24.51
2022-10-11T14:18:45.703Z,24.48
2022-10-11T14:21:33.502Z,24.68
2022-10-11T14:24:06.183Z,24.73
2022-10-11T14:26:37.966Z,25.30
2022-10-11T14:29:12.631Z,25.11
2022-10-11T14:31:43.019Z,25.67
2022-10-11T14:34:19.882Z,25.40
2022-10-11T14:36:50.611Z,25.53
2022-10-11T14:39:21.649Z,25.77
2022-10-11T14:41:51.234Z,25.87
2022-10-11T14:44:20.929Z,26.11
2022-10-11T14:46:54.523Z,26.52
2022-10-11T14:49:26.120Z,26.70
2022-10-11T14:51:56.609Z,26.47
2022-10-11T14:54:27.466Z,26.55
2022-10-11T14:56:58.851Z,26.78
2022-10-11T14:59:32.710Z,26.85
2022-10-11T15:02:02.790Z,27.35
2022-10-11T15:04:31.238Z,27.01
2022-10-11T15:07:00.120Z,27.54
2022-10-11T15:09:28.546Z,27.67
2022-10-11T15:11:57.997Z,27.32
2022-10-11T15:14:27.181Z,27.48
2022-10-11T15:16:56.344Z,28.11
2022-10-11T15:19:26.729Z,28.16
2022-10-11T15:21:55.153Z,28.11
2022-10-11T15:24:23.511Z,28.35
2022-10-11T15:26:51.965Z,28.95
2022-10-11T15:29:21.992Z,28.74
2022-10-11T15:31:50.452Z,29.28
2022-10-11T15:34:18.869Z,29.01
2022-10-11T15:36:50.039Z,29.05
2022-10-11T15:39:28.352Z,29.56
2022-10-11T15:41:56.902Z,29.57
2022-10-11T15:44:25.519Z,29.88
2022-10-11T15:46:54.081Z,29.83
2022-10-11T15:49:22.447Z,29.97
2022-10-11T15:51:52.341Z,30.27
2022-10-11T15:54:20.735Z,30.39
2022-10-11T15:56:49.167Z,30.37
2022-10-11T15:59:17.566Z,30.49
2022-10-11T16:01:47.037Z,30.79
2022-10-11T16:04:15.464Z,30.90
2022-10-11T16:06:43.911Z,31.04
2022-10-11T16:09:13.629Z,31.01
2022-10-11T16:11:41.978Z,31.20
2022-10-11T16:14:10.404Z,31.35
2022-10-11T16:16:38.761Z,31.53
2022-10-11T16:19:07.152Z,31.62
2022-10-11T16:21:35.526Z,31.80
2022-10-11T16:24:04.837Z,31.80
2022-10-11T16:26:34.682Z,32.21
2022-10-11T16:29:03.055Z,32.31
2022-10-11T16:31:31.465Z,32.43
2022-10-11T16:33:59.849Z,32.72
2022-10-11T16:36:36.129Z,33.05
2022-10-11T16:39:09.447Z,33.10
2022-10-11T16:41:39.369Z,33.14
2022-10-11T16:44:08.571Z,33.30
2022-10-11T16:46:36.989Z,33.49
2022-10-11T16:49:05.868Z,34.27
2022-10-11T16:51:34.324Z,34.24
2022-10-11T16:54:02.972Z,34.23
2022-10-11T16:56:37.294Z,34.53
2022-10-11T16:59:09.942Z,34.68
2022-10-11T17:01:39.040Z,35.03
2022-10-11T17:04:08.145Z,34.96
2022-10-11T17:06:36.613Z,35.24
2022-10-11T17:09:05.893Z,35.28
2022-10-11T17:11:35.003Z,35.25
2022-10-11T17:14:05.815Z,35.22
2022-10-11T17:16:36.166Z,35.55
2022-10-11T17:19:05.013Z,35.60
2022-10-11T17:21:33.774Z,36.15
2022-10-11T17:24:02.771Z,36.25
2022-10-11T17:26:31.770Z,36.44
2022-10-11T17:29:01.464Z,36.80
2022-10-11T17:31:30.974Z,37.11
2022-10-11T17:34:02.355Z,37.02
2022-10-11T17:36:35.477Z,36.98
2022-10-11T17:39:08.945Z,36.96
2022-10-11T17:41:37.787Z,37.33
2022-10-11T17:44:07.130Z,37.39
2022-10-11T17:46:36.213Z,37.40
2022-10-11T17:49:08.741Z,37.23
2022-10-11T17:51:39.527Z,37.82
2022-10-11T17:54:12.495Z,37.83
2022-10-11T17:56:43.173Z,37.91
2022-10-11T17:59:18.355Z,38.16
2022-10-11T18:01:47.141Z,38.04
2022-10-11T18:04:18.046Z,38.28
2022-10-11T18:06:48.879Z,38.58
2022-10-11T18:09:19.331Z,38.77
2022-10-11T18:11:48.198Z,39.11
2022-10-11T18:14:18.490Z,39.08
2022-10-11T18:16:47.664Z,39.00
2022-10-11T18:19:18.445Z,39.20
2022-10-11T18:21:47.316Z,39.26
2022-10-11T18:24:18.477Z,39.59
2022-10-11T18:26:50.341Z,40.21
2022-10-11T18:29:19.497Z,40.06
2022-10-11T18:31:48.898Z,40.73
2022-10-11T18:34:18.911Z,40.94
2022-10-11T18:36:48.070Z,40.92
2022-10-11T18:39:17.888Z,40.78
2022-10-11T18:41:47.389Z,40.91
2022-10-11T18:44:17.775Z,41.07
2022-10-11T18:46:50.835Z,41.26
2022-10-11T18:49:21.046Z,41.67
2022-10-11T18:51:50.304Z,41.57
2022-10-11T18:54:21.480Z,41.54
2022-10-11T18:56:50.826Z,41.73
2022-10-11T18:59:21.661Z,42.23
2022-10-11T19:01:52.576Z,42.45
2022-10-11T19:04:24.045Z,42.40
2022-10-11T19:06:53.783Z,42.22
2022-10-11T19:09:26.643Z,42.41
2022-10-11T19:11:57.400Z,42.75
2022-10-11T19:14:28.772Z,42.62
2022-10-11T19:16:58.692Z,42.45
2022-10-11T19:19:32.041Z,42.50
2022-10-11T19:22:03.377Z,42.83
2022-10-11T19:24:33.379Z,42.60
2022-10-11T19:27:03.292Z,42.66
2022-10-11T19:29:33.131Z,42.55
2022-10-11T19:32:04.163Z,42.71
2022-10-11T19:34:35.850Z,42.71
2022-10-11T19:37:04.922Z,42.76
2022-10-11T19:39:33.807Z,42.58
2022-10-11T19:42:04.408Z,42.60
2022-10-11T19:44:37.289Z,42.43
2022-10-11T19:47:10.219Z,42.42
2022-10-11T19:49:40.564Z,42.66
2022-10-11T19:52:09.635Z,42.59
2022-10-11T19:54:38.312Z,42.66
2022-10-11T19:57:08.801Z,42.63
2022-10-11T19:59:39.705Z,42.49
2022-10-11T20:02:08.773Z,42.37
2022-10-11T20:04:52.105Z,42.61
2022-10-11T20:07:21.742Z,42.32
2022-10-11T20:09:50.477Z,42.30
2022-10-11T20:12:18.921Z,42.81
2022-10-11T20:14:47.502Z,42.52
2022-10-11T20:17:16.225Z,42.98
2022-10-11T20:19:46.391Z,42.86
2022-10-11T20:22:14.811Z,42.79
2022-10-11T20:24:43.331Z,43.06
2022-10-11T20:27:12.978Z,42.79
2022-10-11T20:29:41.381Z,43.01
2022-10-11T20:32:09.792Z,43.23
2022-10-11T20:34:39.541Z,43.09
2022-10-11T20:37:09.324Z,43.23
2022-10-11T20:39:37.688Z,43.45
2022-10-11T20:42:06.271Z,43.44
2022-10-11T20:44:34.617Z,43.12
2022-10-11T20:47:04.195Z,43.23
2022-10-11T20:49:32.770Z,43.52
2022-10-11T20:52:01.147Z,43.38
2022-10-11T20:54:34.177Z,43.58
2022-10-11T20:57:03.038Z,43.68
2022-10-11T20:59:31.386Z,43.71
2022-10-11T21:01:59.760Z,43.62
2022-10-11T21:04:28.167Z,43.88
2022-10-11T21:06:56.550Z,43.94
2022-10-11T21:09:25.083Z,43.87
2022-10-11T21:11:54.805Z,43.81
2022-10-11T21:14:23.359Z,43.81
2022-10-11T21:16:51.711Z,43.67
2022-10-11T21:19:20.039Z,44.06
2022-10-11T21:21:53.327Z,43.97
2022-10-11T21:24:22.687Z,43.60
2022-10-11T21:26:51.201Z,43.48
2022-10-11T21:29:21.008Z,43.63
2022-10-11T21:31:49.781Z,43.93
2022-10-11T21:34:18.403Z,43.60
2022-10-11T21:36:46.854Z,43.42
2022-10-11T21:39:15.286Z,43.42
2022-10-11T21:41:43.681Z,43.28
2022-10-11T21:44:12.033Z,43.40
2022-10-11T21:47:05.614Z,43.49
2022-10-11T21:49:30.417Z,42.96
2022-10-11T21:51:59.000Z,43.10
2022-10-11T21:54:27.546Z,43.15
2022-10-11T21:56:55.965Z,43.22
2022-10-11T21:59:24.396Z,43.33
2022-10-11T22:01:56.995Z,43.35
2022-10-11T22:04:29.276Z,43.08
2022-10-11T22:06:57.644Z,42.88
2022-10-11T22:09:27.792Z,42.77
2022-10-11T22:11:56.254Z,42.98
2022-10-11T22:14:25.426Z,43.12
2022-10-11T22:16:55.204Z,42.89
2022-10-11T22:19:23.882Z,43.13
2022-10-11T22:21:52.298Z,42.65
2022-10-11T22:24:20.676Z,42.72
2022-10-11T22:26:49.152Z,42.82
2022-10-11T22:29:17.526Z,42.89
2022-10-11T22:31:45.873Z,42.63
2022-10-11T22:34:15.612Z,42.50
2022-10-11T22:36:43.982Z,42.78
2022-10-11T22:39:12.344Z,42.37
2022-10-11T22:41:40.705Z,42.35
2022-10-11T22:44:09.065Z,42.48
2022-10-11T22:46:37.398Z,42.73
2022-10-11T22:49:05.963Z,42.28
2022-10-11T22:51:35.707Z,42.43
2022-10-11T22:54:04.085Z,42.66
2022-10-11T22:56:32.435Z,42.54
2022-10-11T22:59:00.990Z,42.46
2022-10-11T23:01:29.338Z,42.82
2022-10-11T23:03:57.815Z,42.73
2022-10-11T23:06:26.427Z,43.08
2022-10-11T23:08:56.402Z,43.05
2022-10-11T23:11:24.773Z,43.24
2022-10-11T23:13:53.119Z,42.88
2022-10-11T23:16:21.477Z,43.20
2022-10-11T23:18:52.719Z,43.24
2022-10-11T23:21:21.385Z,43.29
2022-10-11T23:23:49.822Z,43.06
2022-10-11T23:26:19.661Z,42.97
2022-10-11T23:28:48.152Z,43.47
2022-10-11T23:31:18.821Z,43.29
2022-10-11T23:33:47.935Z,43.04
2022-10-11T23:36:17.580Z,43.36
2022-10-11T23:38:46.377Z,43.43
2022-10-11T23:41:14.865Z,43.32
2022-10-11T23:43:44.659Z,43.57
2022-10-11T23:46:13.030Z,43.07
2022-10-11T23:48:41.483Z,43.19
2022-10-11T23:51:10.257Z,43.51
2022-10-11T23:53:39.380Z,43.27
2022-10-11T23:56:09.540Z,43.34
2022-10-11T23:58:37.897Z,43.04
